Moravia, NY (13118)

1:28 PM EDT on August 20, 2014 (GMT -0400)
Roach Farms | Change Station
CLOSE
Current Station
Personal Weather Station
Location: Venice, NY
Elevation: 1263 ft
Nearby Weather Stations

Elev 1263 ft 42.73 °N, 76.52 °W | Updated 3 minutes ago

Overcast
Overcast
67.8 °F
Feels Like 67.8 °F
N
0.0
Wind Variable Wind from SW
Gusts 0.0 mph

Today
High -- | Low -- °F
--% Chance of Precip.
Yesterday
High -- | Low -- °F
Precip. -- in
6:17 AM 7:59 PM
Waning Crescent, 20% visible
Pressure 29.97 in
Visibility 10.0 miles
Clouds Mostly Cloudy 2300 ft
Overcast 2800 ft
Dew Point 66 °F
Humidity 94%
Rainfall 0.65 in
Snow Depth Not available.
UV 3 out of 12
Pollen 8.00 out of 12
PM2.5 Moderate
Flu Activity Not available.
METAR KN03 201715Z AUTO 13004KT 10SM BKN023 OVC028 24/20 A2997 RMK AO2

More Conditions Fewer Conditions

Pressure 29.97 in
Visibility 10.0 miles
Clouds Mostly Cloudy 2300 ft
Overcast 2800 ft
Dew Point 66 °F
Humidity 94%
Rainfall 0.65 in
Snow Depth Not available.
UV 3 out of 12
Pollen 8.00 out of 12
PM2.5 Moderate
Flu Activity Not available.
METAR KN03 201715Z AUTO 13004KT 10SM BKN023 OVC028 24/20 A2997 RMK AO2

More Conditions Fewer Conditions

Nowcast | as of 12:30 PM EDT on August 20, 2014

At 1 PM...showers likely with a chance of thunderstorms. Temperature around 76. South winds around 10 mph. At 3 PM...showers and thunderstorms likely. Temperature around 78. South winds around 10 mph. At 5 PM...showers and thunderstorms. Temperature around 77. South winds 5 to 10 mph.

×

10-Day Weather Forecast

Almanac

Astronomy

Aug. 20, 2014 Rise Set
Actual Time 6:17 AM EDT 7:59 PM EDT
Civil Twilight 5:47 AM EDT 8:29 PM EDT
Nautical Twilight 5:10 AM EDT 9:05 PM EDT
Astronomical Twilight 4:31 AM EDT 9:44 PM EDT
Moon 1:52 AM EDT 4:45 PM EDT
Length of Visible Light 14h 42m
Length of Day
13h 42m
Tomorrow will be 2m 39s shorter.
Waning Crescent, 20% of the Moon is Illuminated
Today
Waning Crescent
Aug 25
New
Sep 2
First Quarter
Sep 8
Full
Sep 15
Last Quarter

Today's Extremes

State Highs State Lows

Community

WunderPhotos

Upload Photos

1,745,697 photos uploaded!

WunderBlogs® & News

By Dr. Jeff Masters
Director of Meteorology, Weather Underground
By Kari Strenfel
Meteorologist, Weather Underground
By Christopher C. Burt
Weather Historian, Weather Underground
August 20, 2014
August 20, 2014
August 20, 2014

Nearby

Air Quality

  Air Quality AQ Index Pollutant
Yesterday Good
PM2.5
Yesterday Good
OZONE
Current Moderate
PM2.5
Wednesday Good
PM2.5
Wednesday Good
OZONE

Snow Depth

Station Depth Elevation
No new snow has been reported.

Earthquake Activity

City Distance Mag. Time & Date
No recent earthquake activity has been reported nearby.
Minimum magnitude displayed is 2.5.

Coastal Water Temperatures

Place Temperature
No Stations Reporting

Nearby Weather Stations